Time;durP1;ratioP1;P1;durP2;ratioP2;P2;SDS_P1;SDS_P2;PMS_P1;PMS_P2;Temp;Humidity;BMP_temperature;BMP_pressure;BME280_temperature;BME280_humidity;BME280_pressure;Samples;Min_cycle;Max_cycle;Signal;HPM_P1;HPM_P2
2022/04/03 00:01:17;;;;;;;10.10;4.83;;;;;;;7.51;50.62;102225.75;4998690;28;20209;-52
2022/04/03 00:03:44;;;;;;;9.60;4.10;;;;;;;7.55;50.77;102219.16;5016180;28;20110;-46
2022/04/03 00:06:10;;;;;;;9.80;4.82;;;;;;;7.58;50.82;102221.53;4999081;28;20062;-48
2022/04/03 00:08:36;;;;;;;13.05;4.30;;;;;;;7.45;51.52;102223.66;5015962;28;20030;-46
2022/04/03 00:11:01;;;;;;;15.00;5.97;;;;;;;7.42;52.13;102218.63;4998814;28;20066;-48
2022/04/03 00:13:27;;;;;;;11.80;4.25;;;;;;;7.45;52.34;102223.66;5015366;28;20112;-50
2022/04/03 00:15:55;;;;;;;12.55;4.75;;;;;;;7.51;52.17;102216.94;5010952;28;20039;-48
2022/04/03 00:18:22;;;;;;;8.30;4.03;;;;;;;7.47;52.56;102221.69;5015375;28;20037;-46
2022/04/03 00:20:49;;;;;;;9.82;3.53;;;;;;;7.38;52.98;102218.06;5015251;28;20042;-48
2022/04/03 00:23:15;;;;;;;7.90;4.22;;;;;;;7.35;52.98;102222.81;5014480;28;20048;-46
2022/04/03 00:25:40;;;;;;;8.15;3.42;;;;;;;7.31;53.03;102217.78;5015881;28;20099;-48
2022/04/03 00:28:06;;;;;;;12.82;3.50;;;;;;;7.35;52.80;102217.50;5030472;28;20034;-48
2022/04/03 00:30:32;;;;;;;10.90;4.45;;;;;;;7.35;53.12;102213.03;5015295;28;20045;-52
2022/04/03 00:32:58;;;;;;;7.43;3.58;;;;;;;7.30;53.45;102221.41;5014957;28;20050;-50
2022/04/03 00:35:24;;;;;;;6.60;3.17;;;;;;;7.27;53.63;102220.88;5015095;28;20018;-47
2022/04/03 00:37:50;;;;;;;9.43;4.00;;;;;;;7.32;53.45;102221.28;5014818;28;20069;-46
2022/04/03 00:40:16;;;;;;;11.55;3.80;;;;;;;7.30;53.40;102221.41;5015210;28;20041;-47
2022/04/03 00:42:41;;;;;;;11.57;4.13;;;;;;;7.20;53.83;102220.59;5014745;28;20065;-50
2022/04/03 00:45:08;;;;;;;7.82;4.03;;;;;;;7.20;54.27;102209.94;5015052;28;20276;-49
2022/04/03 00:47:34;;;;;;;7.63;4.10;;;;;;;7.21;54.42;102216.94;5027007;28;20029;-50
2022/04/03 00:50:01;;;;;;;8.25;2.95;;;;;;;7.24;54.17;102210.47;5015075;28;20264;-46
2022/04/03 00:52:26;;;;;;;6.53;2.97;;;;;;;7.18;54.74;102211.91;5015033;28;20034;-48
2022/04/03 00:54:52;;;;;;;7.00;3.25;;;;;;;7.25;54.33;102213.00;5014627;28;20038;-48
2022/04/03 00:57:22;;;;;;;10.33;3.50;;;;;;;7.18;54.65;102217.22;5014765;28;20152;-50
2022/04/03 00:59:49;;;;;;;8.77;3.53;;;;;;;7.22;54.76;102218.63;5014126;28;20038;-50
2022/04/03 01:02:16;;;;;;;11.30;3.65;;;;;;;7.19;55.16;102213.59;5014970;28;20022;-53
2022/04/03 01:04:41;;;;;;;8.40;3.47;;;;;;;7.15;55.26;102213.00;5014918;28;20038;-47
2022/04/03 01:07:07;;;;;;;9.43;3.57;;;;;;;7.18;55.29;102211.91;5014895;28;20034;-50
2022/04/03 01:09:33;;;;;;;9.13;3.55;;;;;;;7.25;54.94;102210.34;5015000;28;20038;-51
2022/04/03 01:11:59;;;;;;;7.37;3.50;;;;;;;7.16;55.17;102214.69;5014674;28;20089;-54
2022/04/03 01:14:39;;;;;;;13.52;3.60;;;;;;;7.20;55.16;102215.25;4997540;28;20038;-48
2022/04/03 01:17:06;;;;;;;6.45;3.33;;;;;;;7.19;55.51;102213.59;5014704;28;20041;-48
2022/04/03 01:19:31;;;;;;;8.98;3.63;;;;;;;7.18;55.63;102207.41;5014619;28;20046;-53
2022/04/03 01:21:58;;;;;;;8.25;3.38;;;;;;;7.17;55.84;102210.22;5014138;28;20089;-48
2022/04/03 01:24:24;;;;;;;6.97;3.53;;;;;;;7.13;55.74;102209.66;5014542;28;20034;-46
2022/04/03 01:26:51;;;;;;;10.90;3.10;;;;;;;7.14;55.94;102210.47;5014077;28;20041;-48
2022/04/03 01:29:17;;;;;;;7.15;2.90;;;;;;;7.10;56.13;102215.25;5014672;28;20038;-49
2022/04/03 01:31:46;;;;;;;9.40;3.20;;;;;;;6.97;56.67;102204.03;5014490;28;20042;-48
2022/04/03 01:34:13;;;;;;;14.32;4.45;;;;;;;7.07;56.40;102199.56;5014363;28;20141;-48
2022/04/03 01:36:39;;;;;;;8.10;3.53;;;;;;;6.96;56.73;102207.66;5014385;28;20040;-48
2022/04/03 01:39:05;;;;;;;9.23;3.22;;;;;;;6.99;56.92;102205.56;4994273;28;20042;-48
2022/04/03 01:41:31;;;;;;;7.85;3.53;;;;;;;6.93;56.87;102198.16;5014304;28;20034;-46
2022/04/03 01:43:57;;;;;;;7.03;2.92;;;;;;;6.87;57.42;102198.69;5013921;28;20054;-48
2022/04/03 01:46:22;;;;;;;6.37;2.87;;;;;;;6.90;57.73;102203.72;5014134;28;20030;-48
2022/04/03 01:48:48;;;;;;;5.37;2.87;;;;;;;6.89;58.12;102196.72;5014355;28;20045;-49
2022/04/03 01:51:13;;;;;;;10.60;3.57;;;;;;;7.01;57.23;102200.97;5014284;28;20271;-49
2022/04/03 01:53:38;;;;;;;6.10;3.07;;;;;;;6.99;57.39;102202.06;5024680;28;20046;-49
2022/04/03 01:56:06;;;;;;;7.57;3.33;;;;;;;6.98;57.50;102200.38;5014039;28;20031;-49
2022/04/03 01:58:33;;;;;;;8.93;3.80;;;;;;;6.89;58.46;102196.72;5014298;28;20119;-50
2022/04/03 02:01:00;;;;;;;7.80;3.08;;;;;;;6.79;58.89;102201.19;5013917;28;20044;-47
2022/04/03 02:03:27;;;;;;;12.50;3.88;;;;;;;6.63;60.41;102199.88;5014075;28;20031;-47
2022/04/03 02:05:52;;;;;;;5.88;2.83;;;;;;;6.67;61.20;102197.81;5013968;28;20034;-48
2022/04/03 02:08:19;;;;;;;7.97;3.03;;;;;;;6.80;60.55;102197.56;5013819;28;20062;-48
2022/04/03 02:10:45;;;;;;;11.13;3.63;;;;;;;6.81;60.78;102193.91;5014173;28;20046;-49
2022/04/03 02:13:11;;;;;;;8.38;3.42;;;;;;;6.79;60.85;102190.56;5013983;28;20052;-50
2022/04/03 02:15:38;;;;;;;10.10;3.83;;;;;;;6.71;61.92;102199.22;5014173;28;20041;-46
2022/04/03 02:18:04;;;;;;;10.52;3.78;;;;;;;6.76;61.81;102196.16;5013801;28;20086;-46
2022/04/03 02:20:31;;;;;;;8.48;3.40;;;;;;;6.70;62.18;102193.06;5014083;28;20041;-46
2022/04/03 02:23:00;;;;;;;11.13;4.20;;;;;;;6.68;62.60;102189.69;5013884;28;20078;-50
2022/04/03 02:25:26;;;;;;;11.13;3.78;;;;;;;6.61;63.30;102188.56;5013985;28;20034;-48
2022/04/03 02:27:54;;;;;;;7.60;3.50;;;;;;;6.55;64.28;102189.09;5013676;28;20053;-50
2022/04/03 02:30:20;;;;;;;8.23;3.80;;;;;;;6.55;64.28;102189.94;5013924;28;20034;-48
2022/04/03 02:32:46;;;;;;;7.25;3.60;;;;;;;6.55;63.99;102191.75;5013912;28;20030;-49
2022/04/03 02:35:13;;;;;;;12.20;4.00;;;;;;;6.58;63.91;102186.16;5014238;28;20094;-48
2022/04/03 02:37:39;;;;;;;;;;;;;;;6.43;64.42;102191.84;5014623;28;20042;-47
2022/04/03 02:40:08;;;;;;;8.05;3.42;;;;;;;6.55;64.34;102189.09;5014223;28;19917;-47
2022/04/03 02:42:37;;;;;;;6.78;3.28;;;;;;;6.40;65.42;102191.31;5013885;28;20042;-47
2022/04/03 02:45:05;;;;;;;9.90;3.73;;;;;;;6.39;65.97;102190.44;5013901;28;20109;-46
2022/04/03 02:47:32;;;;;;;7.50;3.47;;;;;;;6.35;66.34;102193.53;5031015;28;20306;-49
2022/04/03 02:49:57;;;;;;;8.05;3.63;;;;;;;6.43;65.69;102189.19;5018596;28;20049;-46
2022/04/03 02:52:23;;;;;;;13.93;3.93;;;;;;;6.46;65.62;102185.44;5017580;28;20030;-48
2022/04/03 02:54:48;;;;;;;13.07;4.18;;;;;;;6.49;65.09;102192.31;5017449;28;20102;-50
2022/04/03 02:57:15;;;;;;;11.17;3.93;;;;;;;6.46;65.50;102190.75;4998558;28;20039;-53
2022/04/03 02:59:42;;;;;;;11.88;4.95;;;;;;;6.44;65.96;102192.72;5017218;28;20038;-53
2022/04/03 03:02:09;;;;;;;10.13;5.20;;;;;;;6.39;66.25;102195.75;5000939;28;20140;-47
2022/04/03 03:04:35;;;;;;;16.90;4.47;;;;;;;6.40;66.51;102196.63;5016338;28;21096;-46
2022/04/03 03:07:05;;;;;;;9.45;4.80;;;;;;;6.36;66.58;102196.03;5027765;28;20046;-48
2022/04/03 03:09:30;;;;;;;9.40;5.38;;;;;;;6.45;66.15;102194.38;5022343;28;20050;-50
2022/04/03 03:11:56;;;;;;;15.43;6.38;;;;;;;6.49;66.41;102194.97;5016915;28;20034;-49
2022/04/03 03:14:23;;;;;;;17.50;4.88;;;;;;;6.51;66.12;102199.16;5016947;28;20047;-47
2022/04/03 03:16:48;;;;;;;10.33;3.77;;;;;;;6.52;65.84;102194.69;5017181;28;20041;-47
2022/04/03 03:19:15;;;;;;;8.40;4.13;;;;;;;6.50;65.82;102183.34;5017051;28;20284;-46
2022/04/03 03:21:42;;;;;;;10.13;4.80;;;;;;;6.49;65.85;102192.31;5017290;28;20034;-47
2022/04/03 03:24:09;;;;;;;9.27;4.65;;;;;;;6.56;65.35;102190.78;5000927;28;20034;-51
2022/04/03 03:26:35;;;;;;;13.10;5.25;;;;;;;6.48;65.35;102188.81;5016977;28;20030;-46
2022/04/03 03:29:00;;;;;;;17.10;7.30;;;;;;;6.39;66.63;102179.81;5016926;28;20034;-46
2022/04/03 03:31:26;;;;;;;14.73;5.70;;;;;;;6.43;65.85;102170.59;5017013;28;20056;-49
2022/04/03 03:33:51;;;;;;;18.27;5.87;;;;;;;6.35;66.23;102174.94;5016782;28;20093;-51
2022/04/03 03:36:17;;;;;;;9.90;3.80;;;;;;;6.35;66.49;102182.91;4999693;28;20319;-49
2022/04/03 03:38:43;;;;;;;12.87;5.27;;;;;;;6.41;65.80;102185.84;5016820;28;20041;-48
2022/04/03 03:41:09;;;;;;;7.23;3.80;;;;;;;6.45;65.87;102195.22;5016548;28;20030;-48
2022/04/03 03:43:35;;;;;;;12.48;4.60;;;;;;;6.47;66.40;102192.44;5016338;28;20050;-52
2022/04/03 03:46:00;;;;;;;10.48;4.18;;;;;;;6.57;66.17;102192.47;5016476;28;20034;-52
2022/04/03 03:48:26;;;;;;;20.20;4.93;;;;;;;6.57;66.40;102197.78;5016245;28;20433;-50
2022/04/03 03:50:52;;;;;;;9.03;4.70;;;;;;;6.66;66.09;102188.97;5016160;28;20042;-51
2022/04/03 03:53:19;;;;;;;15.60;4.63;;;;;;;6.71;66.33;102192.09;5016377;28;20034;-49
2022/04/03 03:55:45;;;;;;;11.82;4.88;;;;;;;6.81;65.82;102192.13;5016050;28;20058;-49
2022/04/03 03:58:11;;;;;;;11.93;4.03;;;;;;;6.89;65.46;102188.75;5016238;28;20049;-50
2022/04/03 04:00:37;;;;;;;9.98;4.20;;;;;;;6.92;65.20;102185.84;5016075;28;20053;-51
2022/04/03 04:03:04;;;;;;;8.45;4.32;;;;;;;6.93;65.22;102192.84;5015937;28;20137;-47
2022/04/03 04:05:29;;;;;;;12.90;4.28;;;;;;;7.01;65.36;102184.16;4999228;28;20038;-50
2022/04/03 04:07:55;;;;;;;9.70;3.50;;;;;;;7.07;65.08;102177.44;5015519;28;20041;-49
2022/04/03 04:10:21;;;;;;;8.77;3.88;;;;;;;7.11;65.36;102184.16;5015836;28;20064;-49
2022/04/03 04:12:47;;;;;;;18.38;5.10;;;;;;;7.07;65.56;102185.41;5015942;28;20038;-48
2022/04/03 04:15:14;;;;;;;9.30;3.67;;;;;;;7.16;65.06;102195.25;5016021;28;20042;-47
2022/04/03 04:17:45;;;;;;;6.75;4.00;;;;;;;7.17;64.93;102191.59;5015994;28;20042;-49
2022/04/03 04:20:16;;;;;;;10.88;3.97;;;;;;;7.18;65.37;102196.75;5015794;28;20038;-49
2022/04/03 04:22:43;;;;;;;13.93;4.35;;;;;;;7.15;64.94;102196.19;5016053;28;20046;-49
2022/04/03 04:25:13;;;;;;;10.77;3.97;;;;;;;7.14;65.54;102200.69;5015295;28;20035;-47
2022/04/03 04:27:40;;;;;;;11.48;3.80;;;;;;;7.13;66.20;102201.66;5015720;28;20067;-47
2022/04/03 04:30:07;;;;;;;9.20;3.80;;;;;;;7.11;66.62;102200.13;5015490;28;20037;-46
2022/04/03 04:32:33;;;;;;;11.20;4.55;;;;;;;7.08;67.42;102205.72;5015557;28;20086;-49
2022/04/03 04:34:59;;;;;;;6.78;3.72;;;;;;;7.12;67.59;102201.78;5015282;28;20061;-50
2022/04/03 04:37:25;;;;;;;10.73;3.70;;;;;;;7.15;68.14;102197.03;5015666;28;20054;-49
2022/04/03 04:39:52;;;;;;;11.57;4.70;;;;;;;7.15;68.04;102212.16;5015296;28;20069;-51
2022/04/03 04:42:19;;;;;;;10.18;3.67;;;;;;;7.07;69.48;102212.88;5015684;28;20106;-49
2022/04/03 04:44:45;;;;;;;9.77;5.05;;;;;;;7.09;70.58;102202.94;5015621;28;20045;-46
2022/04/03 04:47:11;;;;;;;13.10;4.70;;;;;;;7.18;70.38;102212.72;5024349;28;20034;-52
2022/04/03 04:49:37;;;;;;;11.15;5.20;;;;;;;7.23;70.71;102214.97;5020247;28;20271;-48
2022/04/03 04:52:03;;;;;;;13.97;5.23;;;;;;;7.23;71.00;102214.13;5015186;28;20072;-49
2022/04/03 04:54:29;;;;;;;11.38;4.25;;;;;;;7.19;72.10;102213.59;5015043;28;20038;-50
2022/04/03 04:56:55;;;;;;;7.28;4.03;;;;;;;7.22;71.74;102221.28;5014882;28;20042;-48
2022/04/03 04:59:21;;;;;;;8.05;3.60;;;;;;;7.30;71.57;102215.28;5015414;28;20097;-52
2022/04/03 05:01:47;;;;;;;7.20;4.05;;;;;;;7.28;72.46;102222.56;5015101;28;20046;-48
2022/04/03 05:04:12;;;;;;;6.83;4.00;;;;;;;7.37;71.68;102218.19;5015017;28;20053;-50
2022/04/03 05:06:39;;;;;;;11.18;3.85;;;;;;;7.41;71.72;102220.44;5015183;28;20038;-53
2022/04/03 05:09:05;;;;;;;11.20;4.07;;;;;;;7.32;72.84;102218.63;5022610;28;20122;-52
2022/04/03 05:11:32;;;;;;;11.98;3.92;;;;;;;7.25;74.90;102226.31;5020902;28;20097;-52
2022/04/03 05:13:58;;;;;;;7.75;4.22;;;;;;;7.27;74.27;102221.69;5014789;28;20034;-51
2022/04/03 05:16:24;;;;;;;9.30;4.25;;;;;;;7.41;74.56;102223.09;5015049;28;20073;-50
2022/04/03 05:18:50;;;;;;;7.00;4.13;;;;;;;7.29;74.93;102221.56;5015063;28;20042;-47
2022/04/03 05:21:16;;;;;;;8.02;3.60;;;;;;;7.16;78.16;102224.50;5014965;28;20040;-48
2022/04/03 05:23:42;;;;;;;9.63;4.28;;;;;;;7.49;74.88;102229.53;5015019;28;20043;-50
2022/04/03 05:26:07;;;;;;;8.00;2.97;;;;;;;7.63;73.22;102230.94;5014680;28;20045;-49
2022/04/03 05:28:35;;;;;;;9.30;4.40;;;;;;;7.59;73.16;102222.41;5014774;28;20284;-51
2022/04/03 05:31:00;;;;;;;7.38;4.10;;;;;;;7.63;72.66;102229.13;5014571;28;20049;-52
2022/04/03 05:33:26;;;;;;;8.20;3.88;;;;;;;7.60;73.71;102226.75;5014968;28;20038;-52
2022/04/03 05:35:51;;;;;;;10.40;4.37;;;;;;;7.64;73.41;102221.97;5014555;28;20042;-52
2022/04/03 05:38:17;;;;;;;12.87;6.27;;;;;;;7.61;75.03;102228.41;5014918;28;20280;-48
2022/04/03 05:40:43;;;;;;;11.27;7.77;;;;;;;7.63;74.31;102220.31;5014729;28;20081;-47
2022/04/03 05:43:09;;;;;;;15.93;6.72;;;;;;;7.60;74.67;102219.56;4994507;28;20386;-51
2022/04/03 05:45:37;;;;;;;9.60;4.87;;;;;;;7.51;74.59;102216.94;5014793;28;20062;-51
2022/04/03 05:48:05;;;;;;;13.75;5.93;;;;;;;7.49;74.94;102230.38;5014280;28;20279;-51
2022/04/03 05:50:31;;;;;;;10.10;6.05;;;;;;;7.39;75.60;102230.38;5014226;28;20068;-50
2022/04/03 05:52:57;;;;;;;9.30;5.23;;;;;;;7.38;76.81;102220.72;5014388;28;20046;-47
2022/04/03 05:55:23;;;;;;;11.73;5.85;;;;;;;7.31;78.40;102231.09;5014519;28;20034;-49
2022/04/03 05:57:50;;;;;;;12.55;5.75;;;;;;;7.31;78.47;102233.75;5014483;28;20057;-50
2022/04/03 06:00:18;;;;;;;12.10;5.70;;;;;;;7.21;80.61;102227.59;5014546;28;20030;-49
2022/04/03 06:02:51;;;;;;;12.00;6.30;;;;;;;7.11;82.28;102226.72;5014523;28;20042;-52
2022/04/03 06:05:18;;;;;;;10.10;5.85;;;;;;;6.71;87.46;102231.97;5014525;28;20058;-47
2022/04/03 06:07:44;;;;;;;10.45;5.95;;;;;;;7.08;84.33;102233.19;5014724;28;20045;-49
2022/04/03 06:10:11;;;;;;;12.80;6.78;;;;;;;7.03;84.83;102230.91;4996911;28;20038;-48
2022/04/03 06:12:37;;;;;;;13.68;6.57;;;;;;;7.12;83.93;102234.56;5014586;28;20069;-53
2022/04/03 06:15:03;;;;;;;16.20;7.90;;;;;;;7.24;83.10;102239.75;4997224;28;20046;-52
2022/04/03 06:17:29;;;;;;;15.65;7.38;;;;;;;7.26;83.58;102236.00;5014587;28;20045;-53
2022/04/03 06:19:54;;;;;;;12.70;7.33;;;;;;;7.34;84.45;102237.09;5014116;28;20038;-52
2022/04/03 06:22:20;;;;;;;20.92;7.40;;;;;;;7.34;84.38;102240.63;5016406;28;20034;-52
2022/04/03 06:24:45;;;;;;;13.23;7.13;;;;;;;7.48;83.76;102242.03;5017944;28;20077;-48
2022/04/03 06:27:11;;;;;;;18.80;7.87;;;;;;;7.43;84.17;102237.09;5001215;28;20276;-48
2022/04/03 06:29:36;;;;;;;26.30;7.90;;;;;;;7.52;84.43;102245.25;5018140;28;20034;-51
2022/04/03 06:32:01;;;;;;;16.47;7.93;;;;;;;7.31;89.72;102235.56;5017737;28;20101;-52
2022/04/03 06:34:27;;;;;;;17.55;8.68;;;;;;;7.67;85.94;102245.66;5017858;28;20045;-52
2022/04/03 06:36:53;;;;;;;12.40;5.30;;;;;;;8.04;80.86;102240.41;5017771;28;20482;-49
2022/04/03 06:39:18;;;;;;;16.05;7.13;;;;;;;7.65;84.74;102244.97;5018038;28;20096;-48
2022/04/03 06:41:44;;;;;;;13.67;7.47;;;;;;;7.96;82.71;102247.44;5017843;28;20115;-48
2022/04/03 06:44:10;;;;;;;16.60;8.15;;;;;;;7.98;83.78;102248.13;5017495;28;20046;-48
2022/04/03 06:46:35;;;;;;;13.83;8.30;;;;;;;8.19;81.38;102242.63;5017126;28;20069;-47
2022/04/03 06:49:01;;;;;;;12.75;8.20;;;;;;;8.17;82.11;102245.41;5017112;28;20122;-52
2022/04/03 06:51:27;;;;;;;16.23;8.60;;;;;;;8.33;79.54;102233.31;5017054;28;20042;-49
2022/04/03 06:53:52;;;;;;;15.97;7.63;;;;;;;8.02;81.72;102242.38;5016390;28;20094;-48
2022/04/03 06:56:19;;;;;;;15.83;8.10;;;;;;;8.30;79.39;102245.09;5016650;28;20069;-50
2022/04/03 06:58:44;;;;;;;14.00;7.75;;;;;;;8.49;79.31;102253.16;5015425;28;20060;-48
2022/04/03 07:01:11;;;;;;;13.20;7.60;;;;;;;8.56;78.37;102251.63;5013694;28;20034;-52
2022/04/03 07:03:36;;;;;;;17.15;7.88;;;;;;;8.19;81.58;102255.94;5016604;28;20030;-46
2022/04/03 07:06:02;;;;;;;15.80;7.97;;;;;;;8.63;79.06;102250.06;5016072;28;20133;-50
2022/04/03 07:08:28;;;;;;;13.38;8.57;;;;;;;8.65;77.48;102250.75;5016580;28;20061;-50
2022/04/03 07:10:55;;;;;;;17.43;7.13;;;;;;;8.41;80.66;102254.75;5016567;28;20034;-48
2022/04/03 07:13:21;;;;;;;15.65;7.20;;;;;;;8.45;80.99;102250.78;5016746;28;20089;-48
2022/04/03 07:15:48;;;;;;;13.03;6.97;;;;;;;8.83;76.41;102253.44;5016427;28;20046;-48
2022/04/03 07:18:15;;;;;;;11.65;6.45;;;;;;;8.64;76.85;102251.72;5016633;28;20038;-51
2022/04/03 07:20:40;;;;;;;10.27;6.10;;;;;;;9.01;75.26;102253.50;5016458;28;20031;-46
2022/04/03 07:23:05;;;;;;;15.00;5.97;;;;;;;8.70;78.20;102250.31;5016105;28;20042;-52
2022/04/03 07:25:31;;;;;;;10.13;5.57;;;;;;;9.04;74.26;102253.19;5016435;28;20038;-49
2022/04/03 07:27:56;;;;;;;12.83;6.00;;;;;;;9.17;73.25;102259.97;5016029;28;20069;-51
2022/04/03 07:30:22;;;;;;;14.90;6.57;;;;;;;8.98;75.46;102256.44;5016158;28;20042;-50
2022/04/03 07:32:47;;;;;;;12.40;6.07;;;;;;;9.15;74.54;102254.81;5015436;28;20038;-52
2022/04/03 07:35:12;;;;;;;10.10;5.00;;;;;;;8.98;75.14;102261.78;5015925;28;20125;-49
2022/04/03 07:37:38;;;;;;;13.90;5.77;;;;;;;9.47;72.74;102258.78;5016019;28;20038;-52
2022/04/03 07:40:04;;;;;;;10.53;5.57;;;;;;;9.58;70.26;102260.38;5016087;28;20034;-52
2022/04/03 07:42:29;;;;;;;16.27;6.97;;;;;;;9.50;70.93;102256.78;5016352;28;20044;-49
2022/04/03 07:44:55;;;;;;;24.63;7.15;;;;;;;9.76;68.50;102254.19;5015839;28;20061;-50
2022/04/03 07:47:21;;;;;;;15.18;6.00;;;;;;;9.74;69.05;102248.16;5015947;28;20466;-49
2022/04/03 07:49:46;;;;;;;13.68;5.88;;;;;;;9.71;66.98;102256.50;5015529;28;20134;-52
2022/04/03 07:52:11;;;;;;;10.33;4.57;;;;;;;9.59;68.38;102264.72;5015776;28;20050;-51
2022/04/03 07:54:38;;;;;;;9.05;4.07;;;;;;;10.16;63.26;102258.13;5015753;28;20197;-50
2022/04/03 07:57:06;;;;;;;7.13;3.17;;;;;;;10.09;60.37;102267.75;5015948;28;20030;-47
2022/04/03 07:59:32;;;;;;;5.85;2.92;;;;;;;10.33;59.86;102264.41;5016034;28;20042;-53
2022/04/03 08:01:57;;;;;;;7.47;3.05;;;;;;;10.57;58.17;102260.22;5015654;28;20045;-49
2022/04/03 08:04:23;;;;;;;5.40;2.60;;;;;;;10.20;58.71;102264.00;5015599;28;20046;-47
2022/04/03 08:06:48;;;;;;;8.13;2.42;;;;;;;10.72;57.86;102260.44;5015504;28;20070;-49
2022/04/03 08:09:14;;;;;;;16.47;4.53;;;;;;;10.23;58.32;102269.03;5015580;28;20053;-52
2022/04/03 08:11:41;;;;;;;10.90;3.50;;;;;;;10.97;56.00;102259.69;5015580;28;20053;-50
2022/04/03 08:14:06;;;;;;;9.90;2.67;;;;;;;10.68;54.53;102272.47;5015404;28;20094;-49
2022/04/03 08:16:32;;;;;;;7.57;2.53;;;;;;;10.84;53.88;102268.16;5016009;28;20045;-47
2022/04/03 08:18:57;;;;;;;6.50;3.63;;;;;;;11.02;53.91;102276.91;5015702;28;20335;-51
2022/04/03 08:21:23;;;;;;;7.00;2.80;;;;;;;10.98;54.28;102270.22;5015980;28;20042;-51
2022/04/03 08:23:49;;;;;;;6.63;2.78;;;;;;;11.14;54.35;102276.63;5015354;28;20043;-53
2022/04/03 08:26:14;;;;;;;5.53;2.30;;;;;;;11.24;53.40;102281.84;5015292;28;20042;-50
2022/04/03 08:28:40;;;;;;;6.73;2.73;;;;;;;11.23;52.95;102275.63;5015699;28;20038;-49
2022/04/03 08:31:05;;;;;;;8.73;2.80;;;;;;;11.83;51.74;102279.03;5015345;28;20299;-53
2022/04/03 08:33:32;;;;;;;5.40;2.80;;;;;;;11.90;52.06;102281.88;5015213;28;20093;-50
2022/04/03 08:35:57;;;;;;;7.75;3.72;;;;;;;11.53;52.19;102276.00;5015120;28;20136;-47
2022/04/03 08:38:23;;;;;;;6.53;3.17;;;;;;;11.24;53.51;102276.50;4998310;28;20042;-51
2022/04/03 08:40:49;;;;;;;6.93;3.60;;;;;;;10.96;54.56;102279.44;5015103;28;20046;-49
2022/04/03 08:43:15;;;;;;;9.50;3.50;;;;;;;11.37;53.41;102273.31;5015385;28;20050;-50
2022/04/03 08:45:41;;;;;;;11.32;3.72;;;;;;;11.98;51.99;102278.34;5014732;28;20303;-48
2022/04/03 08:48:08;;;;;;;8.70;3.10;;;;;;;11.87;51.70;102283.06;4996503;28;20042;-46
2022/04/03 08:50:36;;;;;;;6.90;3.10;;;;;;;12.26;50.38;102286.06;5015152;28;20027;-48
2022/04/03 08:53:04;;;;;;;4.72;2.65;;;;;;;12.68;48.59;102284.91;5015192;28;20102;-48
2022/04/03 08:55:30;;;;;;;2.85;1.80;;;;;;;12.31;48.15;102281.81;5014931;28;20045;-49
2022/04/03 08:57:56;;;;;;;4.75;1.90;;;;;;;12.44;46.62;102286.66;5014772;28;20034;-49
2022/04/03 09:00:22;;;;;;;5.13;1.85;;;;;;;13.64;44.95;102283.88;5015405;28;20049;-47
2022/04/03 09:02:50;;;;;;;4.03;1.75;;;;;;;13.76;44.46;102270.81;5015004;28;20046;-52
2022/04/03 09:05:17;;;;;;;5.20;1.80;;;;;;;14.05;43.39;102274.59;5015042;28;20034;-52
2022/04/03 09:07:43;;;;;;;5.93;2.00;;;;;;;14.39;42.35;102285.84;5014769;28;20038;-51
2022/04/03 09:10:13;;;;;;;6.10;1.77;;;;;;;14.89;41.02;102278.03;5014667;28;20038;-48
2022/04/03 09:12:49;;;;;;;7.97;2.00;;;;;;;15.87;39.43;102282.91;5014975;28;20041;-50
2022/04/03 09:15:20;;;;;;;7.97;1.70;;;;;;;16.97;37.39;102284.16;5014809;28;20042;-49
2022/04/03 09:17:49;;;;;;;6.67;2.33;;;;;;;17.52;36.34;102275.16;4997754;28;20299;-49
2022/04/03 09:20:20;;;;;;;3.70;1.40;;;;;;;16.86;36.58;102284.78;5014695;28;20302;-48
2022/04/03 09:22:48;;;;;;;4.03;1.97;;;;;;;17.19;36.86;102274.09;5014806;28;20276;-56
2022/04/03 09:25:17;;;;;;;5.10;2.07;;;;;;;17.53;35.39;102270.59;5014610;28;20291;-47
2022/04/03 09:27:50;;;;;;;4.03;1.80;;;;;;;17.61;34.50;102270.38;5015003;28;20287;-49
2022/04/03 09:30:17;;;;;;;2.57;1.83;;;;;;;18.74;33.59;102268.50;5014440;28;20322;-50
2022/04/03 09:32:54;;;;;;;5.63;2.73;;;;;;;19.52;32.41;102268.47;4994270;28;20269;-48
2022/04/03 09:35:24;;;;;;;5.20;2.00;;;;;;;20.34;31.56;102270.22;5005332;28;20288;-51
2022/04/03 09:38:11;;;;;;;5.33;1.80;;;;;;;20.15;31.29;102272.09;5014004;28;20268;-51
2022/04/03 09:40:39;;;;;;;7.90;1.13;;;;;;;19.25;30.87;102262.41;4999844;28;20294;-50
2022/04/03 09:43:26;;;;;;;3.23;1.13;;;;;;;17.69;31.95;102256.66;5013576;28;20348;-49
2022/04/03 09:45:58;;;;;;;5.53;1.70;;;;;;;18.33;32.10;102256.16;5014548;28;20303;-51
2022/04/03 09:48:26;;;;;;;3.83;1.33;;;;;;;19.74;30.95;102244.50;4998210;28;20042;-48
2022/04/03 09:51:06;;;;;;;3.57;1.00;;;;;;;19.18;30.96;102254.31;5014051;28;20272;-50
2022/04/03 09:53:56;;;;;;;3.33;1.47;;;;;;;19.27;30.92;102246.75;5011624;28;20343;-50
2022/04/03 09:56:21;;;;;;;5.10;1.63;;;;;;;21.52;29.84;102251.03;5013452;28;20360;-53
2022/04/03 09:58:50;;;;;;;8.43;1.35;;;;;;;22.55;27.06;102238.91;5011024;28;20288;-51
2022/04/03 10:01:30;;;;;;;6.67;1.80;;;;;;;22.26;28.01;102249.75;5013559;28;20038;-50
2022/04/03 10:03:58;;;;;;;2.57;1.37;;;;;;;19.63;30.99;102237.06;5012106;28;20042;-52
2022/04/03 10:06:24;;;;;;;2.33;1.20;;;;;;;19.19;30.76;102240.53;4996921;28;20033;-52
2022/04/03 10:08:50;;;;;;;6.25;1.83;;;;;;;18.08;32.77;102242.47;5013391;28;20049;-48
2022/04/03 10:11:15;;;;;;;1.88;0.95;;;;;;;16.91;33.63;102239.06;5013770;28;20105;-55
2022/04/03 10:13:43;;;;;;;7.03;1.53;;;;;;;16.24;35.10;102234.19;5013772;28;20042;-50
2022/04/03 10:16:11;;;;;;;6.90;1.40;;;;;;;16.97;34.01;102237.41;5011518;28;20276;-53
2022/04/03 10:18:39;;;;;;;4.60;1.20;;;;;;;16.90;33.61;102232.81;5013389;28;20268;-52
2022/04/03 10:21:11;;;;;;;2.57;1.40;;;;;;;16.22;35.68;102236.25;5013397;28;20268;-52
2022/04/03 10:23:40;;;;;;;4.27;1.60;;;;;;;16.41;37.49;102225.78;5013585;28;20288;-53
2022/04/03 10:26:10;;;;;;;3.73;1.20;;;;;;;16.67;33.17;102222.38;5013309;28;20278;-51
2022/04/03 10:28:39;;;;;;;4.00;1.60;;;;;;;16.81;34.01;102222.38;5013486;28;20280;-53
2022/04/03 10:31:08;;;;;;;5.57;1.40;;;;;;;16.30;33.95;102227.19;5013277;28;20283;-55
2022/04/03 10:33:39;;;;;;;5.17;1.63;;;;;;;16.64;33.62;102236.28;5013243;28;20264;-52
2022/04/03 10:36:07;;;;;;;4.00;1.40;;;;;;;18.61;31.71;102225.19;5013342;28;20280;-52
2022/04/03 10:38:38;;;;;;;7.77;1.60;;;;;;;19.96;29.99;102216.13;5013176;28;20271;-53
2022/04/03 10:41:05;;;;;;;3.40;1.20;;;;;;;20.82;28.35;102231.63;5013207;28;20303;-48
2022/04/03 10:43:39;;;;;;;4.80;1.60;;;;;;;19.52;30.04;102218.81;5013321;28;20344;-47
2022/04/03 10:46:06;;;;;;;4.93;1.43;;;;;;;18.39;32.30;102224.69;5013005;28;20307;-50
2022/04/03 10:48:31;;;;;;;;;;;;;;;16.76;37.01;102234.63;5013036;28;20287;-46
2022/04/03 10:51:11;;;;;;;3.40;1.40;;;;;;;16.59;39.77;102233.31;5012756;28;19913;-53
2022/04/03 10:53:48;;;;;;;3.70;1.67;;;;;;;16.20;41.34;102225.69;5011007;28;20167;-53
2022/04/03 10:56:28;;;;;;;8.38;2.03;;;;;;;16.47;40.70;102231.22;5011179;28;20323;-51
2022/04/03 10:58:57;;;;;;;4.87;1.90;;;;;;;17.03;40.58;102221.22;5010768;28;20049;-54
2022/04/03 11:01:27;;;;;;;7.83;2.00;;;;;;;17.32;38.79;102212.94;5011237;28;20302;-53
2022/04/03 11:03:55;;;;;;;5.63;2.00;;;;;;;17.59;37.38;102216.50;5010602;28;20276;-49
2022/04/03 11:06:23;;;;;;;5.93;2.63;;;;;;;18.01;37.95;102218.09;5011629;28;20272;-54
2022/04/03 11:08:57;;;;;;;3.73;1.60;;;;;;;18.36;37.55;102208.88;5014250;28;20271;-54
2022/04/03 11:11:37;;;;;;;4.47;2.27;;;;;;;17.75;38.79;102222.50;5013392;28;20290;-53
2022/04/03 11:14:06;;;;;;;7.93;2.20;;;;;;;18.02;37.58;102211.69;5015599;28;20290;-55
2022/04/03 11:16:49;;;;;;;6.00;2.30;;;;;;;18.88;37.04;102203.38;5016096;28;20344;-52
2022/04/03 11:19:34;;;;;;;3.47;2.10;;;;;;;20.78;35.12;102210.31;5016353;28;20304;-48
2022/04/03 11:21:59;;;;;;;4.60;2.17;;;;;;;;;;5016416;28;20282;-52
2022/04/03 11:24:26;;;;;;;3.72;1.17;;;;;;;21.60;30.32;102199.81;5000649;28;20279;-52
2022/04/03 11:26:51;;;;;;;4.33;2.27;;;;;;;20.61;32.47;102198.41;5016610;28;20070;-52
2022/04/03 11:29:18;;;;;;;2.90;0.90;;;;;;;19.83;31.59;102204.28;5016735;28;20038;-53